sensor_id;sensor_type;location;lat;lon;timestamp;temperature;humidity
24668;DHT22;12793;48.014;0.232;2022-10-22T00:00:48;16.70;65.90
24668;DHT22;12793;48.014;0.232;2022-10-22T00:03:14;16.70;65.80
24668;DHT22;12793;48.014;0.232;2022-10-22T00:05:40;16.70;65.90
24668;DHT22;12793;48.014;0.232;2022-10-22T00:08:06;16.70;65.90
24668;DHT22;12793;48.014;0.232;2022-10-22T00:10:32;16.70;65.90
24668;DHT22;12793;48.014;0.232;2022-10-22T00:12:57;16.70;65.90
24668;DHT22;12793;48.014;0.232;2022-10-22T00:15:23;16.70;65.90
24668;DHT22;12793;48.014;0.232;2022-10-22T00:17:49;16.70;66.00
24668;DHT22;12793;48.014;0.232;2022-10-22T00:20:14;16.70;66.10
24668;DHT22;12793;48.014;0.232;2022-10-22T00:22:40;16.80;66.10
24668;DHT22;12793;48.014;0.232;2022-10-22T00:25:06;16.80;66.00
24668;DHT22;12793;48.014;0.232;2022-10-22T00:27:32;16.80;66.10
24668;DHT22;12793;48.014;0.232;2022-10-22T00:29:57;16.80;66.00
24668;DHT22;12793;48.014;0.232;2022-10-22T00:32:23;16.80;66.10
24668;DHT22;12793;48.014;0.232;2022-10-22T00:34:48;16.80;66.00
24668;DHT22;12793;48.014;0.232;2022-10-22T00:37:14;16.80;66.10
24668;DHT22;12793;48.014;0.232;2022-10-22T00:39:39;16.80;66.00
24668;DHT22;12793;48.014;0.232;2022-10-22T00:42:05;16.80;66.10
24668;DHT22;12793;48.014;0.232;2022-10-22T00:47:16;16.80;66.10
24668;DHT22;12793;48.014;0.232;2022-10-22T00:49:43;16.80;66.20
24668;DHT22;12793;48.014;0.232;2022-10-22T00:52:09;16.80;66.30
24668;DHT22;12793;48.014;0.232;2022-10-22T00:54:35;16.80;66.30
24668;DHT22;12793;48.014;0.232;2022-10-22T00:57:01;16.70;66.30
24668;DHT22;12793;48.014;0.232;2022-10-22T00:59:27;16.80;66.40
24668;DHT22;12793;48.014;0.232;2022-10-22T01:01:53;16.70;66.40
24668;DHT22;12793;48.014;0.232;2022-10-22T01:04:19;16.70;66.40
24668;DHT22;12793;48.014;0.232;2022-10-22T01:06:44;16.70;66.50
24668;DHT22;12793;48.014;0.232;2022-10-22T01:16:55;16.60;66.80
24668;DHT22;12793;48.014;0.232;2022-10-22T01:19:25;16.60;66.90
24668;DHT22;12793;48.014;0.232;2022-10-22T01:22:02;16.60;67.00
24668;DHT22;12793;48.014;0.232;2022-10-22T01:25:30;16.60;67.10
24668;DHT22;12793;48.014;0.232;2022-10-22T01:30:00;16.60;67.10
24668;DHT22;12793;48.014;0.232;2022-10-22T01:32:26;16.60;67.10
24668;DHT22;12793;48.014;0.232;2022-10-22T01:35:00;16.70;67.20
24668;DHT22;12793;48.014;0.232;2022-10-22T01:37:28;16.60;67.30
24668;DHT22;12793;48.014;0.232;2022-10-22T01:39:55;16.60;67.20
24668;DHT22;12793;48.014;0.232;2022-10-22T01:42:21;16.60;67.10
24668;DHT22;12793;48.014;0.232;2022-10-22T01:44:47;16.60;67.20
24668;DHT22;12793;48.014;0.232;2022-10-22T01:57:44;16.60;67.40
24668;DHT22;12793;48.014;0.232;2022-10-22T02:00:13;16.60;67.40
24668;DHT22;12793;48.014;0.232;2022-10-22T02:07:49;16.60;67.50
24668;DHT22;12793;48.014;0.232;2022-10-22T02:10:15;16.60;67.50
24668;DHT22;12793;48.014;0.232;2022-10-22T02:12:41;16.60;67.50
24668;DHT22;12793;48.014;0.232;2022-10-22T02:15:08;16.60;67.50
24668;DHT22;12793;48.014;0.232;2022-10-22T02:17:34;16.60;67.60
24668;DHT22;12793;48.014;0.232;2022-10-22T02:20:04;16.50;67.60
24668;DHT22;12793;48.014;0.232;2022-10-22T02:22:32;16.50;67.60
24668;DHT22;12793;48.014;0.232;2022-10-22T02:24:58;16.50;67.70
24668;DHT22;12793;48.014;0.232;2022-10-22T02:27:31;16.50;67.80
24668;DHT22;12793;48.014;0.232;2022-10-22T02:30:00;16.50;67.80
24668;DHT22;12793;48.014;0.232;2022-10-22T02:32:29;16.50;67.90
24668;DHT22;12793;48.014;0.232;2022-10-22T02:34:55;16.40;68.00
24668;DHT22;12793;48.014;0.232;2022-10-22T02:37:21;16.40;68.20
24668;DHT22;12793;48.014;0.232;2022-10-22T02:39:48;16.40;68.40
24668;DHT22;12793;48.014;0.232;2022-10-22T02:42:13;16.40;68.40
24668;DHT22;12793;48.014;0.232;2022-10-22T02:44:39;16.40;68.60
24668;DHT22;12793;48.014;0.232;2022-10-22T02:47:05;16.30;68.60
24668;DHT22;12793;48.014;0.232;2022-10-22T02:49:30;16.30;68.90
24668;DHT22;12793;48.014;0.232;2022-10-22T02:51:56;16.30;68.90
24668;DHT22;12793;48.014;0.232;2022-10-22T02:54:21;16.30;69.00
24668;DHT22;12793;48.014;0.232;2022-10-22T02:56:47;16.30;69.10
24668;DHT22;12793;48.014;0.232;2022-10-22T02:59:12;16.30;69.10
24668;DHT22;12793;48.014;0.232;2022-10-22T03:01:38;16.30;69.20
24668;DHT22;12793;48.014;0.232;2022-10-22T03:04:03;16.30;69.40
24668;DHT22;12793;48.014;0.232;2022-10-22T03:06:29;16.30;69.40
24668;DHT22;12793;48.014;0.232;2022-10-22T03:08:55;16.30;69.40
24668;DHT22;12793;48.014;0.232;2022-10-22T03:11:20;16.30;69.50
24668;DHT22;12793;48.014;0.232;2022-10-22T03:13:46;16.30;69.50
24668;DHT22;12793;48.014;0.232;2022-10-22T03:16:11;16.30;69.40
24668;DHT22;12793;48.014;0.232;2022-10-22T03:18:37;16.30;69.40
24668;DHT22;12793;48.014;0.232;2022-10-22T03:21:12;16.30;69.50
24668;DHT22;12793;48.014;0.232;2022-10-22T03:23:43;16.30;69.60
24668;DHT22;12793;48.014;0.232;2022-10-22T03:26:09;16.30;69.40
24668;DHT22;12793;48.014;0.232;2022-10-22T03:28:36;16.30;69.50
24668;DHT22;12793;48.014;0.232;2022-10-22T03:31:02;16.30;69.50
24668;DHT22;12793;48.014;0.232;2022-10-22T03:33:28;16.30;69.60
24668;DHT22;12793;48.014;0.232;2022-10-22T03:35:53;16.30;69.60
24668;DHT22;12793;48.014;0.232;2022-10-22T03:38:19;16.30;69.60
24668;DHT22;12793;48.014;0.232;2022-10-22T03:40:44;16.30;69.50
24668;DHT22;12793;48.014;0.232;2022-10-22T03:43:10;16.30;69.50
24668;DHT22;12793;48.014;0.232;2022-10-22T03:45:36;16.30;69.50
24668;DHT22;12793;48.014;0.232;2022-10-22T03:48:01;16.30;69.50
24668;DHT22;12793;48.014;0.232;2022-10-22T03:50:27;16.30;69.50
24668;DHT22;12793;48.014;0.232;2022-10-22T03:52:52;16.30;69.50
24668;DHT22;12793;48.014;0.232;2022-10-22T03:55:18;16.40;69.60
24668;DHT22;12793;48.014;0.232;2022-10-22T03:57:44;16.30;69.50
24668;DHT22;12793;48.014;0.232;2022-10-22T04:00:09;16.40;69.60
24668;DHT22;12793;48.014;0.232;2022-10-22T04:02:36;16.40;69.60
24668;DHT22;12793;48.014;0.232;2022-10-22T04:05:02;16.40;69.60
24668;DHT22;12793;48.014;0.232;2022-10-22T04:07:27;16.40;69.60
24668;DHT22;12793;48.014;0.232;2022-10-22T04:09:53;16.40;69.60
24668;DHT22;12793;48.014;0.232;2022-10-22T04:12:18;16.40;69.60
24668;DHT22;12793;48.014;0.232;2022-10-22T04:14:44;16.40;69.60
24668;DHT22;12793;48.014;0.232;2022-10-22T04:17:09;16.40;69.60
24668;DHT22;12793;48.014;0.232;2022-10-22T04:19:35;16.40;69.70
24668;DHT22;12793;48.014;0.232;2022-10-22T04:22:01;16.40;69.70
24668;DHT22;12793;48.014;0.232;2022-10-22T04:24:28;16.40;69.90
24668;DHT22;12793;48.014;0.232;2022-10-22T04:26:54;16.40;69.80
24668;DHT22;12793;48.014;0.232;2022-10-22T04:29:20;16.40;70.50
24668;DHT22;12793;48.014;0.232;2022-10-22T04:31:45;16.40;70.00
24668;DHT22;12793;48.014;0.232;2022-10-22T04:34:11;16.40;69.90
24668;DHT22;12793;48.014;0.232;2022-10-22T04:36:36;16.50;69.90
24668;DHT22;12793;48.014;0.232;2022-10-22T04:39:02;16.40;69.90
24668;DHT22;12793;48.014;0.232;2022-10-22T04:41:29;16.50;69.80
24668;DHT22;12793;48.014;0.232;2022-10-22T04:43:55;16.50;69.80
24668;DHT22;12793;48.014;0.232;2022-10-22T04:46:21;16.50;69.90
24668;DHT22;12793;48.014;0.232;2022-10-22T04:48:47;16.50;69.80
24668;DHT22;12793;48.014;0.232;2022-10-22T04:51:14;16.50;69.80
24668;DHT22;12793;48.014;0.232;2022-10-22T04:53:40;16.50;69.70
24668;DHT22;12793;48.014;0.232;2022-10-22T04:56:15;16.50;69.60
24668;DHT22;12793;48.014;0.232;2022-10-22T04:58:44;16.50;69.70
24668;DHT22;12793;48.014;0.232;2022-10-22T05:01:13;16.50;69.60
24668;DHT22;12793;48.014;0.232;2022-10-22T05:03:39;16.60;69.70
24668;DHT22;12793;48.014;0.232;2022-10-22T05:06:06;16.60;69.70
24668;DHT22;12793;48.014;0.232;2022-10-22T05:08:32;16.50;69.70
24668;DHT22;12793;48.014;0.232;2022-10-22T05:10:57;16.60;69.80
24668;DHT22;12793;48.014;0.232;2022-10-22T05:13:23;16.60;69.70
24668;DHT22;12793;48.014;0.232;2022-10-22T05:15:48;16.60;69.70
24668;DHT22;12793;48.014;0.232;2022-10-22T05:18:14;16.60;69.70
24668;DHT22;12793;48.014;0.232;2022-10-22T05:20:40;16.60;69.60
24668;DHT22;12793;48.014;0.232;2022-10-22T05:23:06;16.60;69.60
24668;DHT22;12793;48.014;0.232;2022-10-22T05:25:35;16.60;69.70
24668;DHT22;12793;48.014;0.232;2022-10-22T05:28:01;16.60;69.70
24668;DHT22;12793;48.014;0.232;2022-10-22T05:30:27;16.60;69.80
24668;DHT22;12793;48.014;0.232;2022-10-22T05:32:52;16.60;69.80
24668;DHT22;12793;48.014;0.232;2022-10-22T05:35:18;16.60;69.80
24668;DHT22;12793;48.014;0.232;2022-10-22T05:37:43;16.60;69.80
24668;DHT22;12793;48.014;0.232;2022-10-22T05:40:09;16.60;69.80
24668;DHT22;12793;48.014;0.232;2022-10-22T05:42:34;16.60;69.80
24668;DHT22;12793;48.014;0.232;2022-10-22T05:45:00;16.60;69.70
24668;DHT22;12793;48.014;0.232;2022-10-22T05:47:27;16.60;69.70
24668;DHT22;12793;48.014;0.232;2022-10-22T05:49:53;16.60;69.70
24668;DHT22;12793;48.014;0.232;2022-10-22T05:52:21;16.60;69.70
24668;DHT22;12793;48.014;0.232;2022-10-22T05:54:47;16.60;69.60
24668;DHT22;12793;48.014;0.232;2022-10-22T05:57:12;16.60;69.50
24668;DHT22;12793;48.014;0.232;2022-10-22T05:59:38;16.60;69.60
24668;DHT22;12793;48.014;0.232;2022-10-22T06:02:04;16.60;69.60
24668;DHT22;12793;48.014;0.232;2022-10-22T06:04:29;16.60;69.60
24668;DHT22;12793;48.014;0.232;2022-10-22T06:06:55;16.60;69.60
24668;DHT22;12793;48.014;0.232;2022-10-22T06:11:46;16.60;69.70
24668;DHT22;12793;48.014;0.232;2022-10-22T06:14:11;16.60;69.70
24668;DHT22;12793;48.014;0.232;2022-10-22T06:16:37;16.60;69.60
24668;DHT22;12793;48.014;0.232;2022-10-22T06:19:03;16.60;69.70
24668;DHT22;12793;48.014;0.232;2022-10-22T06:21:29;16.60;69.60
24668;DHT22;12793;48.014;0.232;2022-10-22T06:23:55;16.60;69.60
24668;DHT22;12793;48.014;0.232;2022-10-22T06:26:20;16.60;69.60
24668;DHT22;12793;48.014;0.232;2022-10-22T06:28:46;16.60;69.50
24668;DHT22;12793;48.014;0.232;2022-10-22T06:31:11;16.60;69.50
24668;DHT22;12793;48.014;0.232;2022-10-22T06:33:37;16.60;69.60
24668;DHT22;12793;48.014;0.232;2022-10-22T06:36:10;16.60;69.50
24668;DHT22;12793;48.014;0.232;2022-10-22T06:38:36;16.60;69.50
24668;DHT22;12793;48.014;0.232;2022-10-22T06:41:03;16.60;69.50
24668;DHT22;12793;48.014;0.232;2022-10-22T06:43:29;16.60;69.50
24668;DHT22;12793;48.014;0.232;2022-10-22T06:45:57;16.60;69.40
24668;DHT22;12793;48.014;0.232;2022-10-22T06:48:23;16.60;69.40
24668;DHT22;12793;48.014;0.232;2022-10-22T06:50:48;16.60;69.40
24668;DHT22;12793;48.014;0.232;2022-10-22T06:53:14;16.60;69.50
24668;DHT22;12793;48.014;0.232;2022-10-22T06:55:39;16.60;69.30
24668;DHT22;12793;48.014;0.232;2022-10-22T06:58:05;16.60;69.40
24668;DHT22;12793;48.014;0.232;2022-10-22T07:00:31;16.60;69.40
24668;DHT22;12793;48.014;0.232;2022-10-22T07:02:58;16.60;69.40
24668;DHT22;12793;48.014;0.232;2022-10-22T07:05:23;16.60;69.40
24668;DHT22;12793;48.014;0.232;2022-10-22T07:07:49;16.70;69.40
24668;DHT22;12793;48.014;0.232;2022-10-22T07:10:14;16.70;69.50
24668;DHT22;12793;48.014;0.232;2022-10-22T07:12:40;16.70;69.40
24668;DHT22;12793;48.014;0.232;2022-10-22T07:15:06;16.70;69.40
24668;DHT22;12793;48.014;0.232;2022-10-22T07:17:32;16.80;69.50
24668;DHT22;12793;48.014;0.232;2022-10-22T07:19:57;16.80;70.00
24668;DHT22;12793;48.014;0.232;2022-10-22T07:22:23;16.80;69.30
24668;DHT22;12793;48.014;0.232;2022-10-22T07:24:48;16.80;69.20
24668;DHT22;12793;48.014;0.232;2022-10-22T07:27:14;16.80;69.20
24668;DHT22;12793;48.014;0.232;2022-10-22T07:29:39;16.90;69.30
24668;DHT22;12793;48.014;0.232;2022-10-22T07:32:06;16.90;69.30
24668;DHT22;12793;48.014;0.232;2022-10-22T07:34:32;16.90;69.30
24668;DHT22;12793;48.014;0.232;2022-10-22T07:36:58;16.90;69.30
24668;DHT22;12793;48.014;0.232;2022-10-22T07:39:23;16.90;69.20
24668;DHT22;12793;48.014;0.232;2022-10-22T07:41:50;17.00;69.20
24668;DHT22;12793;48.014;0.232;2022-10-22T07:44:16;17.00;69.20
24668;DHT22;12793;48.014;0.232;2022-10-22T07:46:41;17.10;69.20
24668;DHT22;12793;48.014;0.232;2022-10-22T07:49:07;17.10;69.20
24668;DHT22;12793;48.014;0.232;2022-10-22T07:51:32;17.20;69.20
24668;DHT22;12793;48.014;0.232;2022-10-22T07:53:58;17.30;69.10
24668;DHT22;12793;48.014;0.232;2022-10-22T07:56:23;17.30;68.90
24668;DHT22;12793;48.014;0.232;2022-10-22T07:58:49;17.30;68.70
24668;DHT22;12793;48.014;0.232;2022-10-22T08:01:14;17.30;68.70
24668;DHT22;12793;48.014;0.232;2022-10-22T08:03:40;17.40;68.70
24668;DHT22;12793;48.014;0.232;2022-10-22T08:06:06;17.40;68.60
24668;DHT22;12793;48.014;0.232;2022-10-22T08:08:32;17.40;68.60
24668;DHT22;12793;48.014;0.232;2022-10-22T08:10:59;17.30;68.40
24668;DHT22;12793;48.014;0.232;2022-10-22T08:13:24;17.30;68.60
24668;DHT22;12793;48.014;0.232;2022-10-22T08:15:50;17.30;68.60
24668;DHT22;12793;48.014;0.232;2022-10-22T08:18:16;17.40;68.80
24668;DHT22;12793;48.014;0.232;2022-10-22T08:20:41;17.40;68.70
24668;DHT22;12793;48.014;0.232;2022-10-22T08:23:07;17.40;68.60
24668;DHT22;12793;48.014;0.232;2022-10-22T08:25:32;17.40;68.60
24668;DHT22;12793;48.014;0.232;2022-10-22T08:27:58;17.40;68.60
24668;DHT22;12793;48.014;0.232;2022-10-22T08:30:23;17.50;68.60
24668;DHT22;12793;48.014;0.232;2022-10-22T08:32:52;17.50;68.50
24668;DHT22;12793;48.014;0.232;2022-10-22T08:35:17;17.50;68.40
24668;DHT22;12793;48.014;0.232;2022-10-22T08:37:43;17.60;68.50
24668;DHT22;12793;48.014;0.232;2022-10-22T08:40:09;17.60;68.40
24668;DHT22;12793;48.014;0.232;2022-10-22T08:50:36;17.80;68.00
24668;DHT22;12793;48.014;0.232;2022-10-22T08:53:05;17.80;67.90
24668;DHT22;12793;48.014;0.232;2022-10-22T08:55:32;17.90;67.90
24668;DHT22;12793;48.014;0.232;2022-10-22T08:58:00;17.90;68.00
24668;DHT22;12793;48.014;0.232;2022-10-22T09:00:29;18.00;68.10
24668;DHT22;12793;48.014;0.232;2022-10-22T09:05:44;18.20;67.70
24668;DHT22;12793;48.014;0.232;2022-10-22T09:08:13;18.30;67.10
24668;DHT22;12793;48.014;0.232;2022-10-22T09:10:41;18.30;67.30
24668;DHT22;12793;48.014;0.232;2022-10-22T09:13:09;18.30;66.70
24668;DHT22;12793;48.014;0.232;2022-10-22T09:15:37;18.40;66.70
24668;DHT22;12793;48.014;0.232;2022-10-22T09:18:12;18.40;66.70
24668;DHT22;12793;48.014;0.232;2022-10-22T09:20:46;18.50;66.60
24668;DHT22;12793;48.014;0.232;2022-10-22T09:25:56;18.50;66.10
24668;DHT22;12793;48.014;0.232;2022-10-22T09:28:22;18.60;66.20
24668;DHT22;12793;48.014;0.232;2022-10-22T09:30:47;18.70;66.00
24668;DHT22;12793;48.014;0.232;2022-10-22T09:38:10;18.90;65.80
24668;DHT22;12793;48.014;0.232;2022-10-22T09:40:44;19.10;65.80
24668;DHT22;12793;48.014;0.232;2022-10-22T09:43:13;19.20;65.40
24668;DHT22;12793;48.014;0.232;2022-10-22T09:45:39;19.30;65.10
24668;DHT22;12793;48.014;0.232;2022-10-22T09:48:39;19.30;64.60
24668;DHT22;12793;48.014;0.232;2022-10-22T09:53:25;19.60;64.50
24668;DHT22;12793;48.014;0.232;2022-10-22T09:55:51;19.80;64.10
24668;DHT22;12793;48.014;0.232;2022-10-22T09:58:18;19.90;63.90
24668;DHT22;12793;48.014;0.232;2022-10-22T10:00:46;20.00;64.00
24668;DHT22;12793;48.014;0.232;2022-10-22T10:03:19;20.20;64.00
24668;DHT22;12793;48.014;0.232;2022-10-22T10:05:46;20.30;63.80
24668;DHT22;12793;48.014;0.232;2022-10-22T10:08:13;20.50;63.30
24668;DHT22;12793;48.014;0.232;2022-10-22T10:10:42;20.70;62.50
24668;DHT22;12793;48.014;0.232;2022-10-22T10:15:44;20.90;62.00
24668;DHT22;12793;48.014;0.232;2022-10-22T10:21:19;21.20;61.00
24668;DHT22;12793;48.014;0.232;2022-10-22T10:32:00;22.00;59.40
24668;DHT22;12793;48.014;0.232;2022-10-22T10:34:29;22.30;59.20
24668;DHT22;12793;48.014;0.232;2022-10-22T10:42:21;23.00;57.60
24668;DHT22;12793;48.014;0.232;2022-10-22T10:49:39;23.70;55.60
24668;DHT22;12793;48.014;0.232;2022-10-22T11:07:46;25.10;53.60
24668;DHT22;12793;48.014;0.232;2022-10-22T11:12:40;25.70;53.10
24668;DHT22;12793;48.014;0.232;2022-10-22T11:17:50;26.30;52.50
24668;DHT22;12793;48.014;0.232;2022-10-22T11:20:20;26.40;51.70
24668;DHT22;12793;48.014;0.232;2022-10-22T11:30:22;27.40;50.80
24668;DHT22;12793;48.014;0.232;2022-10-22T11:32:55;27.70;50.70
24668;DHT22;12793;48.014;0.232;2022-10-22T11:35:29;27.90;50.20
24668;DHT22;12793;48.014;0.232;2022-10-22T11:37:56;28.20;49.80
24668;DHT22;12793;48.014;0.232;2022-10-22T11:42:55;28.60;47.40
24668;DHT22;12793;48.014;0.232;2022-10-22T11:57:55;28.90;46.10
24668;DHT22;12793;48.014;0.232;2022-10-22T12:00:34;29.10;45.90
24668;DHT22;12793;48.014;0.232;2022-10-22T12:03:17;29.30;45.60
24668;DHT22;12793;48.014;0.232;2022-10-22T12:05:43;29.50;45.70
24668;DHT22;12793;48.014;0.232;2022-10-22T12:10:47;29.80;45.70
24668;DHT22;12793;48.014;0.232;2022-10-22T12:16:01;30.00;44.10
24668;DHT22;12793;48.014;0.232;2022-10-22T12:18:32;30.00;43.60
24668;DHT22;12793;48.014;0.232;2022-10-22T12:20:58;30.10;43.90
24668;DHT22;12793;48.014;0.232;2022-10-22T12:23:27;30.10;43.50
24668;DHT22;12793;48.014;0.232;2022-10-22T12:25:53;30.10;43.30
24668;DHT22;12793;48.014;0.232;2022-10-22T12:28:18;30.10;43.60
24668;DHT22;12793;48.014;0.232;2022-10-22T12:30:44;30.30;43.40
24668;DHT22;12793;48.014;0.232;2022-10-22T12:33:19;30.30;43.10
24668;DHT22;12793;48.014;0.232;2022-10-22T12:35:46;30.40;42.40
24668;DHT22;12793;48.014;0.232;2022-10-22T12:38:13;30.50;42.80
24668;DHT22;12793;48.014;0.232;2022-10-22T12:40:39;30.60;42.30
24668;DHT22;12793;48.014;0.232;2022-10-22T12:43:18;30.70;41.40
24668;DHT22;12793;48.014;0.232;2022-10-22T12:45:45;30.70;41.60
24668;DHT22;12793;48.014;0.232;2022-10-22T12:48:30;30.80;41.70
24668;DHT22;12793;48.014;0.232;2022-10-22T12:50:59;30.90;41.60
24668;DHT22;12793;48.014;0.232;2022-10-22T12:53:29;30.90;40.70
24668;DHT22;12793;48.014;0.232;2022-10-22T12:55:56;30.90;40.70
24668;DHT22;12793;48.014;0.232;2022-10-22T12:58:25;30.90;40.50
24668;DHT22;12793;48.014;0.232;2022-10-22T13:00:55;30.80;40.30
24668;DHT22;12793;48.014;0.232;2022-10-22T13:03:24;30.70;40.60
24668;DHT22;12793;48.014;0.232;2022-10-22T13:05:50;30.70;41.60
24668;DHT22;12793;48.014;0.232;2022-10-22T13:08:16;30.70;41.00
24668;DHT22;12793;48.014;0.232;2022-10-22T13:10:48;30.70;41.40
24668;DHT22;12793;48.014;0.232;2022-10-22T13:16:16;30.80;40.40
24668;DHT22;12793;48.014;0.232;2022-10-22T13:18:42;30.70;41.00
24668;DHT22;12793;48.014;0.232;2022-10-22T13:23:54;30.80;40.00
24668;DHT22;12793;48.014;0.232;2022-10-22T13:26:20;30.70;40.40
24668;DHT22;12793;48.014;0.232;2022-10-22T13:28:53;30.70;40.50
24668;DHT22;12793;48.014;0.232;2022-10-22T13:31:23;30.80;40.50
24668;DHT22;12793;48.014;0.232;2022-10-22T13:33:52;30.90;40.50
24668;DHT22;12793;48.014;0.232;2022-10-22T13:36:18;30.70;39.80
24668;DHT22;12793;48.014;0.232;2022-10-22T13:38:44;30.60;39.50
24668;DHT22;12793;48.014;0.232;2022-10-22T13:41:43;30.50;40.10
24668;DHT22;12793;48.014;0.232;2022-10-22T13:44:02;30.40;40.40
24668;DHT22;12793;48.014;0.232;2022-10-22T13:46:27;30.20;40.20
24668;DHT22;12793;48.014;0.232;2022-10-22T13:48:54;30.00;40.00
24668;DHT22;12793;48.014;0.232;2022-10-22T13:51:21;29.80;39.60
24668;DHT22;12793;48.014;0.232;2022-10-22T13:53:48;29.60;40.00
24668;DHT22;12793;48.014;0.232;2022-10-22T13:56:15;29.40;40.30
24668;DHT22;12793;48.014;0.232;2022-10-22T13:58:41;29.20;40.60
24668;DHT22;12793;48.014;0.232;2022-10-22T14:01:10;28.90;40.50
24668;DHT22;12793;48.014;0.232;2022-10-22T14:03:40;28.60;40.90
24668;DHT22;12793;48.014;0.232;2022-10-22T14:06:09;28.30;41.40
24668;DHT22;12793;48.014;0.232;2022-10-22T14:08:36;28.00;41.80
24668;DHT22;12793;48.014;0.232;2022-10-22T14:11:02;27.70;42.30
24668;DHT22;12793;48.014;0.232;2022-10-22T14:13:27;27.50;42.80
24668;DHT22;12793;48.014;0.232;2022-10-22T14:15:53;27.30;43.10
24668;DHT22;12793;48.014;0.232;2022-10-22T14:18:23;27.30;43.40
24668;DHT22;12793;48.014;0.232;2022-10-22T14:20:54;27.20;43.80
24668;DHT22;12793;48.014;0.232;2022-10-22T14:23:21;27.10;43.70
24668;DHT22;12793;48.014;0.232;2022-10-22T14:25:47;27.00;43.70
24668;DHT22;12793;48.014;0.232;2022-10-22T14:28:15;26.90;43.50
24668;DHT22;12793;48.014;0.232;2022-10-22T14:30:40;26.80;43.40
24668;DHT22;12793;48.014;0.232;2022-10-22T14:33:25;26.70;43.40
24668;DHT22;12793;48.014;0.232;2022-10-22T14:35:51;26.50;43.70
24668;DHT22;12793;48.014;0.232;2022-10-22T14:38:17;26.30;43.90
24668;DHT22;12793;48.014;0.232;2022-10-22T14:40:43;26.20;44.10
24668;DHT22;12793;48.014;0.232;2022-10-22T14:43:10;26.10;44.00
24668;DHT22;12793;48.014;0.232;2022-10-22T14:45:36;25.90;44.10
24668;DHT22;12793;48.014;0.232;2022-10-22T14:48:02;25.80;44.40
24668;DHT22;12793;48.014;0.232;2022-10-22T14:50:28;25.70;44.70
24668;DHT22;12793;48.014;0.232;2022-10-22T14:52:53;25.60;44.80
24668;DHT22;12793;48.014;0.232;2022-10-22T14:55:21;25.50;45.10
24668;DHT22;12793;48.014;0.232;2022-10-22T14:57:47;25.40;45.40
24668;DHT22;12793;48.014;0.232;2022-10-22T15:00:16;25.20;45.50
24668;DHT22;12793;48.014;0.232;2022-10-22T15:02:42;25.10;45.80
24668;DHT22;12793;48.014;0.232;2022-10-22T15:05:08;25.00;46.00
24668;DHT22;12793;48.014;0.232;2022-10-22T15:07:33;24.90;46.30
24668;DHT22;12793;48.014;0.232;2022-10-22T15:09:59;24.80;46.60
24668;DHT22;12793;48.014;0.232;2022-10-22T15:12:25;24.70;46.80
24668;DHT22;12793;48.014;0.232;2022-10-22T15:14:50;24.60;47.10
24668;DHT22;12793;48.014;0.232;2022-10-22T15:17:16;24.50;47.30
24668;DHT22;12793;48.014;0.232;2022-10-22T15:19:42;24.40;47.60
24668;DHT22;12793;48.014;0.232;2022-10-22T15:22:09;24.30;47.80
24668;DHT22;12793;48.014;0.232;2022-10-22T15:24:39;24.20;48.00
24668;DHT22;12793;48.014;0.232;2022-10-22T15:27:13;24.10;48.20
24668;DHT22;12793;48.014;0.232;2022-10-22T15:29:39;24.00;48.50
24668;DHT22;12793;48.014;0.232;2022-10-22T15:32:04;23.90;48.80
24668;DHT22;12793;48.014;0.232;2022-10-22T15:34:33;23.90;49.10
24668;DHT22;12793;48.014;0.232;2022-10-22T15:37:00;23.70;49.30
24668;DHT22;12793;48.014;0.232;2022-10-22T15:39:26;23.60;49.80
24668;DHT22;12793;48.014;0.232;2022-10-22T15:41:52;23.40;50.50
24668;DHT22;12793;48.014;0.232;2022-10-22T15:44:18;23.30;50.20
24668;DHT22;12793;48.014;0.232;2022-10-22T15:46:44;23.20;50.50
24668;DHT22;12793;48.014;0.232;2022-10-22T15:49:10;23.20;50.80
24668;DHT22;12793;48.014;0.232;2022-10-22T15:51:36;23.00;50.90
24668;DHT22;12793;48.014;0.232;2022-10-22T15:54:02;23.00;51.30
24668;DHT22;12793;48.014;0.232;2022-10-22T15:56:28;22.90;51.50
24668;DHT22;12793;48.014;0.232;2022-10-22T15:58:55;22.80;51.70
24668;DHT22;12793;48.014;0.232;2022-10-22T16:01:20;22.70;51.90
24668;DHT22;12793;48.014;0.232;2022-10-22T16:03:46;22.60;52.30
24668;DHT22;12793;48.014;0.232;2022-10-22T16:06:12;22.60;52.10
24668;DHT22;12793;48.014;0.232;2022-10-22T16:08:37;22.50;52.20
24668;DHT22;12793;48.014;0.232;2022-10-22T16:11:03;22.40;52.30
24668;DHT22;12793;48.014;0.232;2022-10-22T16:13:28;22.40;52.50
24668;DHT22;12793;48.014;0.232;2022-10-22T16:15:54;22.40;52.60
24668;DHT22;12793;48.014;0.232;2022-10-22T16:18:20;22.30;52.80
24668;DHT22;12793;48.014;0.232;2022-10-22T16:20:46;22.30;52.90
24668;DHT22;12793;48.014;0.232;2022-10-22T16:23:11;22.30;53.20
24668;DHT22;12793;48.014;0.232;2022-10-22T16:25:39;22.40;53.30
24668;DHT22;12793;48.014;0.232;2022-10-22T16:28:05;22.40;53.50
24668;DHT22;12793;48.014;0.232;2022-10-22T16:30:32;22.40;53.40
24668;DHT22;12793;48.014;0.232;2022-10-22T16:32:58;22.40;53.60
24668;DHT22;12793;48.014;0.232;2022-10-22T16:35:24;22.30;53.60
24668;DHT22;12793;48.014;0.232;2022-10-22T16:37:49;22.30;53.60
24668;DHT22;12793;48.014;0.232;2022-10-22T16:40:15;22.30;53.80
24668;DHT22;12793;48.014;0.232;2022-10-22T16:42:40;22.20;53.80
24668;DHT22;12793;48.014;0.232;2022-10-22T16:45:06;22.20;53.90
24668;DHT22;12793;48.014;0.232;2022-10-22T16:47:32;22.10;54.00
24668;DHT22;12793;48.014;0.232;2022-10-22T16:49:58;22.00;54.10
24668;DHT22;12793;48.014;0.232;2022-10-22T16:52:25;22.00;54.20
24668;DHT22;12793;48.014;0.232;2022-10-22T16:54:50;21.90;54.40
24668;DHT22;12793;48.014;0.232;2022-10-22T16:57:16;21.80;54.60
24668;DHT22;12793;48.014;0.232;2022-10-22T16:59:42;21.70;54.70
24668;DHT22;12793;48.014;0.232;2022-10-22T17:02:08;21.70;54.80
24668;DHT22;12793;48.014;0.232;2022-10-22T17:04:34;21.50;54.90
24668;DHT22;12793;48.014;0.232;2022-10-22T17:06:59;21.50;55.00
24668;DHT22;12793;48.014;0.232;2022-10-22T17:09:25;21.40;55.10
24668;DHT22;12793;48.014;0.232;2022-10-22T17:11:51;21.30;55.40
24668;DHT22;12793;48.014;0.232;2022-10-22T17:14:16;21.20;55.40
24668;DHT22;12793;48.014;0.232;2022-10-22T17:16:42;21.20;55.50
24668;DHT22;12793;48.014;0.232;2022-10-22T17:19:09;21.10;55.60
24668;DHT22;12793;48.014;0.232;2022-10-22T17:21:34;21.10;55.80
24668;DHT22;12793;48.014;0.232;2022-10-22T17:24:02;21.00;55.90
24668;DHT22;12793;48.014;0.232;2022-10-22T17:26:28;20.90;55.90
24668;DHT22;12793;48.014;0.232;2022-10-22T17:28:54;20.90;56.00
24668;DHT22;12793;48.014;0.232;2022-10-22T17:33:46;20.70;56.20
24668;DHT22;12793;48.014;0.232;2022-10-22T17:36:12;20.70;56.30
24668;DHT22;12793;48.014;0.232;2022-10-22T17:38:41;20.60;56.40
24668;DHT22;12793;48.014;0.232;2022-10-22T17:41:07;20.60;56.60